Augusta, Kansas
Current Conditions -  °F | °C
As of 12:15 PM on Monday 24 Nov 2014 (Local Time) from KEQA Reporting Station
Clear Clear  
Wind Chill:   Ceiling: Unl
Heat Index:   Visibility: 10mi
Dew Point: -5°   Wind: 25mph
Humidity: 37%   Direction: 310°NW
Pressure: 29.86"   Gusts: 33mph
Location:  37.68°N, 96.98°W
Report Text: KEQA 241815Z AUTO 31022G29KT 10SM CLR 09/M05 A2986 RMK AO2
Loading
Personal Weather Stations






























Interactive Weather Map New forecast layout! Learn more

10-Day Weather Forecast

Advertisements
Track Severe Weather on mobile